Time;durP1;ratioP1;P1;durP2;ratioP2;P2;SDS_P1;SDS_P2;PMS_P1;PMS_P2;Temp;Humidity;BMP_temperature;BMP_pressure;BME280_temperature;BME280_humidity;BME280_pressure;Samples;Min_cycle;Max_cycle;Signal;HPM_P1;HPM_P2
2021/12/09 00:00:19;;;;;;;0.47;0.40;;;2.30;92.40;;;;;;4878656;29;20083;-80
2021/12/09 00:02:45;;;;;;;0.80;0.35;;;2.20;92.40;;;;;;4862733;29;20481;-80
2021/12/09 00:05:14;;;;;;;0.43;0.35;;;2.10;92.40;;;;;;4879365;29;20117;-80
2021/12/09 00:07:42;;;;;;;0.95;0.43;;;2.30;92.50;;;;;;4880140;29;20037;-80
2021/12/09 00:10:09;;;;;;;0.70;0.30;;;2.20;92.50;;;;;;4879672;29;20044;-79
2021/12/09 00:12:35;;;;;;;0.32;0.17;;;2.20;92.40;;;;;;4896125;29;20076;-79
2021/12/09 00:15:01;;;;;;;0.32;0.30;;;2.20;92.40;;;;;;4848722;29;20048;-79
2021/12/09 00:17:27;;;;;;;0.45;0.43;;;2.30;92.40;;;;;;4879515;29;20048;-79
2021/12/09 00:19:53;;;;;;;0.35;0.30;;;2.30;92.30;;;;;;4863826;29;20055;-80
2021/12/09 00:22:19;;;;;;;0.65;0.50;;;2.30;92.30;;;;;;4864052;29;20400;-79
2021/12/09 00:24:45;;;;;;;0.40;0.40;;;2.20;92.30;;;;;;4863918;29;20088;-79
2021/12/09 00:27:10;;;;;;;0.60;0.40;;;2.20;92.30;;;;;;4848441;29;20049;-80
2021/12/09 00:29:36;;;;;;;0.40;0.30;;;2.20;92.40;;;;;;4879440;29;20401;-80
2021/12/09 00:32:03;;;;;;;0.93;0.40;;;2.30;92.30;;;;;;4896167;29;20056;-79
2021/12/09 00:34:32;;;;;;;0.30;0.30;;;2.20;92.30;;;;;;4879214;29;20084;-79
2021/12/09 00:37:03;;;;;;;0.22;0.22;;;2.20;92.30;;;;;;4896593;29;20048;-79
2021/12/09 00:39:29;;;;;;;0.40;0.30;;;2.40;92.40;;;;;;4863989;29;20049;-79
2021/12/09 00:41:54;;;;;;;0.60;0.40;;;2.30;92.30;;;;;;4879245;29;20281;-79
2021/12/09 00:44:20;;;;;;;0.28;0.28;;;2.30;92.30;;;;;;4895933;29;20076;-79
2021/12/09 00:46:46;;;;;;;1.27;0.50;;;2.30;92.30;;;;;;4879429;29;20056;-79
2021/12/09 00:49:12;;;;;;;1.30;0.32;;;2.30;92.30;;;;;;4865802;29;20086;-79
2021/12/09 00:51:37;;;;;;;0.35;0.30;;;2.30;92.30;;;;;;4882295;29;20037;-79
2021/12/09 00:54:04;;;;;;;0.47;0.40;;;2.20;92.30;;;;;;4851540;29;20077;-79
2021/12/09 00:56:30;;;;;;;0.20;0.20;;;2.30;92.30;;;;;;4898958;29;20481;-79
2021/12/09 00:58:56;;;;;;;0.40;0.30;;;2.20;92.30;;;;;;4882362;29;20051;-79
2021/12/09 01:01:23;;;;;;;0.55;0.35;;;2.20;92.30;;;;;;4899419;29;20045;-79
2021/12/09 01:03:49;;;;;;;0.10;0.10;;;2.20;92.30;;;;;;4880562;29;20056;-79
2021/12/09 01:06:15;;;;;;;0.47;0.40;;;2.10;92.40;;;;;;4882214;29;20459;-80
2021/12/09 01:08:42;;;;;;;0.30;0.20;;;2.10;92.40;;;;;;4866760;29;20127;-79
2021/12/09 01:11:09;;;;;;;0.32;0.30;;;2.10;92.50;;;;;;4899040;29;20382;-79
2021/12/09 01:13:36;;;;;;;0.32;0.28;;;2.10;92.50;;;;;;4880216;29;20058;-79
2021/12/09 01:16:02;;;;;;;0.68;0.32;;;2.00;92.50;;;;;;4881954;29;20076;-79
2021/12/09 01:18:28;;;;;;;0.30;0.25;;;2.00;92.50;;;;;;4882066;29;20093;-79
2021/12/09 01:20:54;;;;;;;0.57;0.32;;;2.00;92.50;;;;;;4882231;29;20049;-79
2021/12/09 01:23:20;;;;;;;1.58;0.43;;;1.90;92.50;;;;;;4866410;29;20092;-79
2021/12/09 01:25:47;;;;;;;1.13;0.45;;;1.90;92.50;;;;;;4881944;29;20049;-79
2021/12/09 01:28:21;;;;;;;0.35;0.20;;;1.90;92.60;;;;;;4866380;29;20503;-80
2021/12/09 01:30:49;;;;;;;0.50;0.30;;;1.80;92.60;;;;;;4881806;29;20087;-79
2021/12/09 01:33:15;;;;;;;0.65;0.30;;;1.80;92.60;;;;;;4898470;29;20550;-79
2021/12/09 01:35:47;;;;;;;0.40;0.40;;;1.80;92.60;;;;;;4851131;29;20075;-79
2021/12/09 01:38:14;;;;;;;;;;;1.80;92.60;;;;;;4881081;29;20052;-79
2021/12/09 01:40:41;;;;;;;0.20;0.15;;;1.80;92.60;;;;;;4866575;29;19920;-79
2021/12/09 01:43:07;;;;;;;0.30;0.30;;;1.70;92.60;;;;;;4898651;29;20076;-79
2021/12/09 01:45:33;;;;;;;0.20;0.20;;;1.70;92.60;;;;;;4898870;29;20052;-79
2021/12/09 01:47:59;;;;;;;0.30;0.25;;;1.70;92.60;;;;;;4866320;29;20037;-79
2021/12/09 01:50:26;;;;;;;0.30;0.30;;;1.70;92.60;;;;;;4881481;29;20055;-79
2021/12/09 01:52:52;;;;;;;0.47;0.40;;;1.70;92.60;;;;;;4898100;29;20096;-79
2021/12/09 01:55:19;;;;;;;0.28;0.28;;;1.70;92.60;;;;;;4881370;29;20056;-79
2021/12/09 01:57:48;;;;;;;0.52;0.25;;;1.70;92.70;;;;;;4865936;29;20084;-79
2021/12/09 02:00:17;;;;;;;0.32;0.32;;;1.70;92.70;;;;;;4880772;29;20123;-79
2021/12/09 02:02:43;;;;;;;0.20;0.20;;;1.70;92.70;;;;;;4850869;29;20048;-79
2021/12/09 02:05:10;;;;;;;1.02;0.25;;;1.70;92.70;;;;;;4865797;29;20124;-79
2021/12/09 02:07:37;;;;;;;0.50;0.30;;;1.80;92.70;;;;;;4881911;29;20442;-79
2021/12/09 02:10:07;;;;;;;0.03;0.03;;;1.70;92.60;;;;;;4865546;29;20044;-80
2021/12/09 02:12:33;;;;;;;0.30;0.20;;;1.70;92.60;;;;;;4850517;29;20058;-79
2021/12/09 02:15:00;;;;;;;0.22;0.20;;;1.80;92.60;;;;;;4898125;29;20037;-79
2021/12/09 02:17:28;;;;;;;0.60;0.13;;;1.70;92.60;;;;;;4881175;29;20076;-79
2021/12/09 02:19:57;;;;;;;0.57;0.30;;;1.80;92.70;;;;;;4850131;29;20048;-79
2021/12/09 02:22:23;;;;;;;0.20;0.20;;;1.80;92.60;;;;;;4865966;29;20385;-79
2021/12/09 02:24:51;;;;;;;0.40;0.30;;;1.70;92.60;;;;;;4865669;29;20048;-79
2021/12/09 02:27:16;;;;;;;0.20;0.20;;;1.80;92.60;;;;;;4866000;29;20043;-79
2021/12/09 02:29:42;;;;;;;0.38;0.20;;;1.80;92.50;;;;;;4865407;29;20143;-79
2021/12/09 02:32:08;;;;;;;0.45;0.28;;;1.80;92.50;;;;;;4865255;29;20083;-79
2021/12/09 02:34:35;;;;;;;0.43;0.30;;;1.80;92.50;;;;;;4850101;29;20048;-80
2021/12/09 02:37:03;;;;;;;0.22;0.22;;;1.80;92.50;;;;;;4865545;29;20103;-79
2021/12/09 02:39:29;;;;;;;0.63;0.30;;;1.80;92.50;;;;;;4864243;29;20181;-79
2021/12/09 02:41:55;;;;;;;0.38;0.20;;;1.80;92.60;;;;;;4880974;29;20123;-79
2021/12/09 02:44:22;;;;;;;0.30;0.20;;;1.70;92.60;;;;;;4897511;29;20048;-79
2021/12/09 02:46:51;;;;;;;0.70;0.40;;;1.70;92.60;;;;;;4880804;29;20047;-79
2021/12/09 02:49:21;;;;;;;0.85;0.20;;;1.70;92.60;;;;;;4850049;29;20541;-79
2021/12/09 02:51:48;;;;;;;0.55;0.30;;;1.70;92.60;;;;;;4897990;29;20064;-79
2021/12/09 02:54:16;;;;;;;0.30;0.28;;;1.70;92.60;;;;;;4865556;29;20052;-79
2021/12/09 02:56:45;;;;;;;0.40;0.20;;;1.70;92.60;;;;;;4880907;29;20445;-79
2021/12/09 02:59:11;;;;;;;0.38;0.30;;;1.60;92.90;;;;;;4864797;29;20084;-79
2021/12/09 03:01:49;;;;;;;0.28;0.28;;;1.60;92.70;;;;;;4897552;29;20040;-79
2021/12/09 03:04:14;;;;;;;0.40;0.20;;;1.60;92.70;;;;;;4897367;29;20032;-79
2021/12/09 03:06:42;;;;;;;1.45;0.60;;;1.60;92.70;;;;;;4865074;29;20047;-79
2021/12/09 03:09:14;;;;;;;1.00;0.30;;;1.60;92.70;;;;;;4849594;29;20081;-79
2021/12/09 03:11:41;;;;;;;0.20;0.20;;;1.50;92.70;;;;;;4896668;29;20053;-79
2021/12/09 03:14:08;;;;;;;0.30;0.30;;;1.60;92.70;;;;;;4897006;29;20063;-79
2021/12/09 03:16:35;;;;;;;0.45;0.28;;;1.50;92.70;;;;;;4880150;29;20052;-79
2021/12/09 03:19:07;;;;;;;0.65;0.28;;;1.40;92.70;;;;;;4896909;29;20045;-79
2021/12/09 03:21:37;;;;;;;0.30;0.30;;;1.50;92.70;;;;;;4878461;29;20040;-79
2021/12/09 03:24:08;;;;;;;0.20;0.20;;;1.50;92.70;;;;;;4895292;29;20044;-79
2021/12/09 03:26:41;;;;;;;0.20;0.20;;;1.40;92.70;;;;;;4895191;29;20378;-79
2021/12/09 03:29:13;;;;;;;0.47;0.40;;;1.40;93.00;;;;;;4865103;29;20083;-79
2021/12/09 03:31:42;;;;;;;0.20;0.20;;;1.30;92.80;;;;;;4879586;29;20564;-79
2021/12/09 03:34:08;;;;;;;0.50;0.30;;;1.30;92.80;;;;;;4865080;29;20048;-78
2021/12/09 03:36:34;;;;;;;0.80;0.30;;;1.30;92.80;;;;;;4847320;29;20053;-78
2021/12/09 03:39:04;;;;;;;0.63;0.40;;;1.30;92.80;;;;;;4880172;29;20489;-77
2021/12/09 03:41:30;;;;;;;0.20;0.20;;;1.20;92.80;;;;;;4880055;29;20560;-78
2021/12/09 03:43:57;;;;;;;0.45;0.20;;;1.10;92.80;;;;;;4879673;29;20048;-79
2021/12/09 03:46:24;;;;;;;0.65;0.25;;;1.10;92.90;;;;;;4864341;29;20045;-79
2021/12/09 03:48:50;;;;;;;0.28;0.28;;;1.10;92.90;;;;;;4864228;29;20438;-79
2021/12/09 03:51:16;;;;;;;0.65;0.28;;;1.10;92.90;;;;;;4896633;29;20060;-78
2021/12/09 03:53:42;;;;;;;0.30;0.30;;;1.10;92.90;;;;;;4896608;29;20048;-78
2021/12/09 03:56:07;;;;;;;0.10;0.10;;;1.00;92.90;;;;;;4880198;29;20507;-78
2021/12/09 03:58:33;;;;;;;0.57;0.25;;;1.00;92.90;;;;;;4879608;29;20451;-78
2021/12/09 04:00:59;;;;;;;0.47;0.28;;;0.90;92.90;;;;;;4864292;29;20139;-78
2021/12/09 04:03:25;;;;;;;0.30;0.30;;;1.00;92.90;;;;;;4879620;29;20056;-78
2021/12/09 04:05:51;;;;;;;0.68;0.30;;;0.90;92.90;;;;;;4848642;29;20048;-78
2021/12/09 04:08:17;;;;;;;1.27;0.75;;;0.90;92.90;;;;;;4848708;29;20901;-78
2021/12/09 04:10:44;;;;;;;0.20;0.20;;;0.90;93.20;;;;;;4879575;29;20056;-79
2021/12/09 04:13:11;;;;;;;0.10;0.10;;;0.90;93.00;;;;;;4879589;29;20100;-78
2021/12/09 04:15:37;;;;;;;0.40;0.40;;;0.90;93.00;;;;;;4864564;29;20119;-78
2021/12/09 04:18:03;;;;;;;0.70;0.30;;;0.90;93.00;;;;;;4896749;29;20061;-78
2021/12/09 04:20:29;;;;;;;0.57;0.52;;;0.80;92.90;;;;;;4896033;29;20089;-78
2021/12/09 04:22:56;;;;;;;0.43;0.20;;;0.80;93.00;;;;;;4865742;29;20512;-78
2021/12/09 04:25:24;;;;;;;0.98;0.30;;;0.80;93.00;;;;;;4882649;29;20386;-78
2021/12/09 04:27:52;;;;;;;0.40;0.25;;;0.80;93.00;;;;;;4882673;29;20051;-78
2021/12/09 04:30:19;;;;;;;0.77;0.30;;;0.80;93.00;;;;;;4899378;29;20913;-78
2021/12/09 04:32:46;;;;;;;0.32;0.30;;;0.80;93.00;;;;;;4899868;29;20485;-77
2021/12/09 04:35:12;;;;;;;0.50;0.30;;;0.80;93.00;;;;;;4851743;29;20041;-78
2021/12/09 04:37:38;;;;;;;0.22;0.20;;;0.70;93.00;;;;;;4867105;29;20045;-78
2021/12/09 04:40:06;;;;;;;0.40;0.20;;;0.60;93.00;;;;;;4867030;29;20053;-78
2021/12/09 04:42:32;;;;;;;0.20;0.20;;;0.70;93.00;;;;;;4866893;29;20481;-78
2021/12/09 04:44:58;;;;;;;0.20;0.20;;;0.70;93.10;;;;;;4899499;29;20092;-78
2021/12/09 04:47:24;;;;;;;0.30;0.30;;;0.80;93.10;;;;;;4882275;29;20037;-77
2021/12/09 04:49:50;;;;;;;0.20;0.20;;;0.80;93.00;;;;;;4882331;29;20044;-78
2021/12/09 04:52:15;;;;;;;0.70;0.45;;;0.90;93.00;;;;;;4882377;29;20124;-79
2021/12/09 04:54:41;;;;;;;0.50;0.30;;;0.90;92.90;;;;;;4851278;29;20108;-78
2021/12/09 04:57:10;;;;;;;0.70;0.40;;;0.90;92.80;;;;;;4866705;29;20112;-79
2021/12/09 04:59:35;;;;;;;0.30;0.28;;;1.00;92.80;;;;;;4898606;29;20052;-78
2021/12/09 05:02:02;;;;;;;0.77;0.40;;;1.00;92.80;;;;;;4867080;29;20044;-78
2021/12/09 05:04:28;;;;;;;0.60;0.22;;;1.00;92.70;;;;;;4865407;29;20087;-78
2021/12/09 05:06:55;;;;;;;0.47;0.30;;;1.10;92.80;;;;;;4882790;29;20047;-78
2021/12/09 05:09:21;;;;;;;0.55;0.40;;;1.10;92.70;;;;;;4866997;29;20108;-78
2021/12/09 05:11:48;;;;;;;1.08;0.40;;;1.20;92.60;;;;;;4882378;29;20404;-78
2021/12/09 05:14:16;;;;;;;0.93;0.47;;;1.20;92.60;;;;;;4897335;29;20052;-78
2021/12/09 05:16:43;;;;;;;0.80;0.40;;;1.20;92.70;;;;;;4882149;29;20055;-78
2021/12/09 05:19:09;;;;;;;1.40;0.38;;;1.30;92.70;;;;;;4866689;29;20057;-78
2021/12/09 05:21:39;;;;;;;0.77;0.30;;;1.30;92.60;;;;;;4851145;29;20554;-78
2021/12/09 05:24:08;;;;;;;0.70;0.40;;;1.30;92.60;;;;;;4898932;29;20451;-78
2021/12/09 05:26:42;;;;;;;0.63;0.30;;;1.20;92.50;;;;;;4882000;29;20040;-78
2021/12/09 05:29:08;;;;;;;1.33;0.40;;;1.30;92.60;;;;;;4896944;29;20033;-78
2021/12/09 05:34:17;;;;;;;0.93;0.40;;;1.30;92.60;;;;;;4896425;29;20080;-78
2021/12/09 05:36:42;;;;;;;0.85;0.30;;;1.30;92.50;;;;;;4850979;29;20139;-78
2021/12/09 05:39:11;;;;;;;0.35;0.35;;;1.20;92.60;;;;;;4881989;29;20040;-78
2021/12/09 05:41:38;;;;;;;0.55;0.20;;;1.20;92.60;;;;;;4866419;29;20485;-78
2021/12/09 05:44:05;;;;;;;0.30;0.30;;;1.30;92.60;;;;;;4898964;29;20047;-78
2021/12/09 05:46:34;;;;;;;0.32;0.30;;;1.10;92.60;;;;;;4881957;29;20076;-78
2021/12/09 05:49:00;;;;;;;0.40;0.30;;;1.30;92.70;;;;;;4866444;29;20056;-77
2021/12/09 05:51:26;;;;;;;0.40;0.40;;;1.30;92.70;;;;;;4881764;29;20048;-78
2021/12/09 05:53:52;;;;;;;0.30;0.25;;;1.30;92.70;;;;;;4866235;29;20072;-78
2021/12/09 05:56:18;;;;;;;0.73;0.25;;;1.30;92.70;;;;;;4898406;29;20044;-78
2021/12/09 05:58:45;;;;;;;1.08;0.30;;;1.30;92.70;;;;;;4898295;29;20385;-78
2021/12/09 06:01:10;;;;;;;1.38;0.30;;;1.30;92.60;;;;;;4881658;29;20083;-78
2021/12/09 06:03:36;;;;;;;0.60;0.40;;;1.20;92.60;;;;;;4850803;29;20127;-77
2021/12/09 06:06:02;;;;;;;0.30;0.30;;;1.30;92.70;;;;;;4866005;29;20107;-78
2021/12/09 06:08:28;;;;;;;0.10;0.10;;;1.20;92.70;;;;;;4850571;29;20053;-78
2021/12/09 06:10:54;;;;;;;1.02;0.38;;;1.20;92.70;;;;;;4881339;29;20048;-78
2021/12/09 06:13:23;;;;;;;1.08;0.20;;;1.20;92.80;;;;;;4866227;29;20505;-78
2021/12/09 06:15:49;;;;;;;0.08;0.08;;;1.10;92.80;;;;;;4881656;29;20052;-78
2021/12/09 06:18:14;;;;;;;0.38;0.30;;;1.10;92.80;;;;;;4866320;29;20061;-79
2021/12/09 06:20:40;;;;;;;0.57;0.20;;;1.10;92.80;;;;;;4881113;29;20056;-79
2021/12/09 06:23:06;;;;;;;0.50;0.30;;;1.10;92.80;;;;;;4898217;29;20037;-78
2021/12/09 06:25:32;;;;;;;0.90;0.35;;;1.10;92.70;;;;;;4866066;29;20044;-78
2021/12/09 06:27:58;;;;;;;0.73;0.47;;;1.10;92.80;;;;;;4882006;29;20033;-79
2021/12/09 06:30:24;;;;;;;0.10;0.10;;;1.10;92.80;;;;;;4881174;29;20411;-79
2021/12/09 06:32:50;;;;;;;1.08;0.20;;;1.10;92.80;;;;;;4865583;29;20044;-79
2021/12/09 06:35:17;;;;;;;0.70;0.30;;;1.10;92.80;;;;;;4865532;29;20074;-79
2021/12/09 06:37:45;;;;;;;0.20;0.17;;;1.10;92.90;;;;;;4897619;29;20147;-79
2021/12/09 06:40:18;;;;;;;0.22;0.10;;;1.10;92.80;;;;;;4865754;29;20080;-79
2021/12/09 06:42:45;;;;;;;0.20;0.20;;;1.10;92.80;;;;;;4865225;29;20063;-79
2021/12/09 06:45:11;;;;;;;0.10;0.10;;;1.10;92.80;;;;;;4865676;29;20040;-79
2021/12/09 06:47:38;;;;;;;0.50;0.20;;;1.00;92.80;;;;;;4880885;29;20457;-79
2021/12/09 06:50:06;;;;;;;0.28;0.22;;;1.00;92.80;;;;;;4865459;29;20052;-79
2021/12/09 06:52:32;;;;;;;0.22;0.10;;;1.00;92.90;;;;;;4850013;29;20053;-79
2021/12/09 06:54:59;;;;;;;0.32;0.20;;;0.90;92.90;;;;;;4880593;29;20044;-79
2021/12/09 06:57:24;;;;;;;0.28;0.25;;;1.00;92.90;;;;;;4865461;29;20045;-79
2021/12/09 06:59:50;;;;;;;0.63;0.20;;;0.90;92.90;;;;;;4897311;29;20135;-79
2021/12/09 07:02:17;;;;;;;0.55;0.30;;;0.90;92.90;;;;;;4880815;29;20486;-79
2021/12/09 07:04:43;;;;;;;0.43;0.30;;;0.90;92.90;;;;;;4880954;29;20074;-79
2021/12/09 07:07:09;;;;;;;0.75;0.20;;;0.90;92.90;;;;;;4880893;29;20037;-79
2021/12/09 07:09:37;;;;;;;0.10;0.10;;;0.90;93.00;;;;;;4850015;29;20048;-78
2021/12/09 07:12:03;;;;;;;0.47;0.20;;;0.90;92.90;;;;;;4897147;29;20037;-79
2021/12/09 07:14:29;;;;;;;0.22;0.15;;;0.80;92.90;;;;;;4897448;29;20041;-78
2021/12/09 07:16:55;;;;;;;0.68;0.30;;;0.80;92.90;;;;;;4881291;29;20109;-79
2021/12/09 07:19:21;;;;;;;0.20;0.20;;;0.80;93.00;;;;;;4896843;29;20060;-79
2021/12/09 07:21:47;;;;;;;0.20;0.20;;;0.80;93.00;;;;;;4864483;29;20052;-79
2021/12/09 07:24:13;;;;;;;0.57;0.25;;;0.80;92.90;;;;;;4865212;29;20100;-79
2021/12/09 07:26:39;;;;;;;0.20;0.20;;;0.80;92.90;;;;;;4880004;29;20045;-79
2021/12/09 07:29:05;;;;;;;0.20;0.20;;;0.80;92.90;;;;;;4897277;29;20374;-78
2021/12/09 07:31:31;;;;;;;0.10;0.10;;;0.80;93.00;;;;;;4899698;29;20131;-78
2021/12/09 07:33:57;;;;;;;0.47;0.40;;;0.80;93.00;;;;;;4868741;29;20084;-76
2021/12/09 07:36:24;;;;;;;0.28;0.28;;;0.80;93.00;;;;;;4899290;29;20205;-76
2021/12/09 07:38:50;;;;;;;0.90;0.30;;;0.70;93.00;;;;;;4873824;29;20045;-78
2021/12/09 07:41:17;;;;;;;0.20;0.20;;;0.80;93.00;;;;;;4882470;29;20519;-77
2021/12/09 07:43:43;;;;;;;0.73;0.38;;;0.80;93.00;;;;;;4882399;29;20055;-80
2021/12/09 07:46:09;;;;;;;0.22;0.22;;;0.80;93.00;;;;;;4856317;29;20048;-78
2021/12/09 07:48:35;;;;;;;0.63;0.25;;;0.90;93.00;;;;;;4883479;29;20040;-80
2021/12/09 07:51:01;;;;;;;0.20;0.20;;;0.90;93.00;;;;;;4865889;29;20060;-80
2021/12/09 07:53:28;;;;;;;0.20;0.20;;;0.80;92.90;;;;;;4881978;29;20052;-81
2021/12/09 07:55:54;;;;;;;0.40;0.20;;;0.90;93.00;;;;;;4880411;29;20428;-82
2021/12/09 07:58:23;;;;;;;0.20;0.20;;;0.90;92.90;;;;;;4829101;29;20120;-84
2021/12/09 08:00:57;;;;;;;0.20;0.20;;;0.90;92.90;;;;;;4842206;29;20076;-82
2021/12/09 08:03:23;;;;;;;0.38;0.20;;;1.00;92.90;;;;;;4832425;29;20168;-81
2021/12/09 08:05:48;;;;;;;0.28;0.28;;;1.10;92.90;;;;;;4846373;29;20041;-81
2021/12/09 08:08:14;;;;;;;0.65;0.30;;;1.10;92.80;;;;;;4843863;29;20118;-81
2021/12/09 08:10:40;;;;;;;0.20;0.20;;;1.30;92.80;;;;;;4859311;29;20041;-81
2021/12/09 08:13:08;;;;;;;0.50;0.20;;;1.20;92.80;;;;;;4845115;29;20219;-82
2021/12/09 08:15:38;;;;;;;0.63;0.32;;;1.30;92.80;;;;;;4858974;29;20045;-81
2021/12/09 08:18:25;;;;;;;0.20;0.20;;;1.40;92.70;;;;;;4826314;29;20417;-80
2021/12/09 08:20:54;;;;;;;0.45;0.35;;;1.40;92.70;;;;;;4829637;29;20054;-80
2021/12/09 08:23:20;;;;;;;0.90;0.45;;;1.40;92.60;;;;;;4825978;29;20038;-81
2021/12/09 08:25:47;;;;;;;0.68;0.30;;;1.60;92.60;;;;;;4857850;29;20166;-80
2021/12/09 08:28:13;;;;;;;1.00;0.60;;;1.60;92.60;;;;;;4843365;29;20077;-78
2021/12/09 08:30:40;;;;;;;0.47;0.35;;;1.70;92.50;;;;;;4896799;29;20488;-80
2021/12/09 08:33:06;;;;;;;0.93;0.47;;;1.70;92.50;;;;;;4864652;29;20140;-81
2021/12/09 08:35:33;;;;;;;1.35;0.50;;;1.70;92.50;;;;;;4879703;29;20053;-82
2021/12/09 08:37:59;;;;;;;1.73;0.95;;;1.80;92.40;;;;;;4896742;29;20079;-81
2021/12/09 08:40:26;;;;;;;1.85;0.98;;;1.90;92.40;;;;;;4896268;29;20072;-82
2021/12/09 08:42:52;;;;;;;0.68;0.60;;;2.00;92.40;;;;;;4849329;29;20096;-80
2021/12/09 08:45:20;;;;;;;2.83;0.75;;;2.00;92.30;;;;;;4881773;29;20404;-80
2021/12/09 08:47:48;;;;;;;1.35;0.75;;;2.10;92.30;;;;;;4881051;29;20037;-79
2021/12/09 08:50:18;;;;;;;1.80;0.85;;;2.30;92.30;;;;;;4902102;29;20053;-79
2021/12/09 08:52:45;;;;;;;1.13;0.70;;;2.30;92.30;;;;;;4902660;29;21148;-80
2021/12/09 08:55:11;;;;;;;2.83;1.13;;;2.30;92.20;;;;;;4906890;29;20174;-80
2021/12/09 08:57:37;;;;;;;2.03;1.15;;;2.40;92.10;;;;;;4907327;29;20051;-80
2021/12/09 09:00:07;;;;;;;3.78;1.27;;;2.40;92.10;;;;;;4885661;29;20048;-79
2021/12/09 09:02:33;;;;;;;2.88;1.05;;;2.60;92.00;;;;;;4886091;29;20072;-82
2021/12/09 09:05:07;;;;;;;2.63;1.10;;;2.50;92.00;;;;;;4872622;29;20037;-82
2021/12/09 09:07:32;;;;;;;2.70;1.10;;;2.60;92.00;;;;;;4873799;29;20080;-79
2021/12/09 09:09:58;;;;;;;3.97;1.20;;;2.70;92.00;;;;;;4871120;29;20040;-79
2021/12/09 09:12:24;;;;;;;2.83;1.15;;;2.70;91.90;;;;;;4868173;29;20093;-79
2021/12/09 09:14:49;;;;;;;3.30;1.30;;;2.70;91.90;;;;;;4911885;29;20044;-79
2021/12/09 09:17:15;;;;;;;2.80;1.30;;;2.70;91.90;;;;;;4879493;29;20055;-79
2021/12/09 09:19:41;;;;;;;2.47;1.08;;;2.80;92.00;;;;;;4910447;29;20116;-78
2021/12/09 09:22:06;;;;;;;3.00;1.58;;;2.90;92.00;;;;;;4901598;29;20500;-79
2021/12/09 09:24:35;;;;;;;3.75;1.33;;;2.90;92.00;;;;;;4889018;29;20056;-84
2021/12/09 09:27:01;;;;;;;2.47;1.30;;;2.90;91.90;;;;;;4871669;29;20068;-78
2021/12/09 09:29:28;;;;;;;2.08;1.20;;;3.00;91.90;;;;;;4900999;29;20074;-77
2021/12/09 09:31:55;;;;;;;3.13;1.42;;;3.00;91.90;;;;;;4883988;29;20048;-79
2021/12/09 09:34:20;;;;;;;3.65;1.67;;;3.10;91.90;;;;;;4884684;29;20044;-81
2021/12/09 09:36:46;;;;;;;6.07;1.48;;;3.00;91.90;;;;;;4886892;29;20100;-80
2021/12/09 09:39:18;;;;;;;3.95;1.50;;;3.20;91.90;;;;;;4857101;29;20043;-81
2021/12/09 09:41:54;;;;;;;2.38;1.30;;;3.30;91.90;;;;;;4896609;29;20060;-84
2021/12/09 09:44:27;;;;;;;3.33;1.70;;;3.40;91.80;;;;;;4874015;29;20132;-81
2021/12/09 09:47:30;;;;;;;2.60;1.40;;;3.50;91.80;;;;;;4898401;29;20044;-82
2021/12/09 09:53:25;;;;;;;1.80;0.93;;;3.60;91.70;;;;;;4805591;29;20072;-81
2021/12/09 09:55:51;;;;;;;2.22;1.30;;;3.70;91.60;;;;;;4844072;29;20088;-83
2021/12/09 09:58:17;;;;;;;2.20;1.20;;;3.70;91.60;;;;;;4831795;29;20495;-83
2021/12/09 10:03:57;;;;;;;2.03;1.10;;;3.70;91.60;;;;;;4836130;29;20467;-81
2021/12/09 10:06:23;;;;;;;3.85;1.27;;;3.60;91.60;;;;;;4844461;29;20046;-80
2021/12/09 10:08:49;;;;;;;2.42;1.30;;;3.60;91.70;;;;;;4841741;29;20061;-81
2021/12/09 10:11:15;;;;;;;2.08;1.30;;;3.60;91.80;;;;;;4846263;29;20050;-84
2021/12/09 10:13:47;;;;;;;1.92;1.20;;;3.70;91.90;;;;;;4815006;29;20035;-83
2021/12/09 10:16:23;;;;;;;3.60;1.38;;;3.70;91.90;;;;;;4844286;29;20046;-83
2021/12/09 10:18:52;;;;;;;2.38;1.30;;;3.60;91.80;;;;;;4828386;29;20436;-82
2021/12/09 10:21:28;;;;;;;3.65;1.30;;;3.70;91.80;;;;;;4844249;29;20068;-81
2021/12/09 10:24:04;;;;;;;2.20;1.40;;;3.70;91.80;;;;;;4840538;29;20085;-80
2021/12/09 10:26:33;;;;;;;2.83;1.30;;;3.80;91.70;;;;;;4858182;29;20131;-79
2021/12/09 10:29:25;;;;;;;2.25;1.20;;;3.90;91.80;;;;;;4851331;29;20481;-78
2021/12/09 10:31:57;;;;;;;2.80;1.48;;;3.90;91.70;;;;;;4881674;29;20037;-77
2021/12/09 10:34:33;;;;;;;3.53;1.42;;;4.00;91.70;;;;;;4898620;29;20040;-81
2021/12/09 10:37:04;;;;;;;2.40;1.40;;;4.00;91.60;;;;;;4881116;29;20370;-79
2021/12/09 10:39:37;;;;;;;1.83;1.00;;;4.00;91.60;;;;;;4870395;29;20128;-80
2021/12/09 10:42:09;;;;;;;3.33;1.50;;;4.10;91.70;;;;;;4868640;29;20045;-81
2021/12/09 10:44:40;;;;;;;3.30;1.25;;;4.10;91.70;;;;;;4889472;29;20497;-81
2021/12/09 10:47:12;;;;;;;2.85;1.30;;;4.10;91.60;;;;;;4876331;29;20064;-79
2021/12/09 10:49:54;;;;;;;2.97;1.48;;;4.10;91.60;;;;;;4868775;29;20063;-81
2021/12/09 10:52:37;;;;;;;2.47;1.30;;;4.10;91.60;;;;;;4869200;29;20040;-82
2021/12/09 10:55:11;;;;;;;2.22;1.27;;;4.10;91.90;;;;;;4855050;29;21024;-83
2021/12/09 10:57:37;;;;;;;2.33;1.40;;;4.10;91.70;;;;;;4846613;29;20040;-80
2021/12/09 11:00:25;;;;;;;1.77;1.17;;;4.00;91.70;;;;;;4832091;29;20050;-82
2021/12/09 11:03:03;;;;;;;1.83;1.30;;;4.10;91.70;;;;;;4847382;29;20037;-79
2021/12/09 11:05:31;;;;;;;1.80;1.10;;;4.10;91.70;;;;;;4852758;29;20033;-80
2021/12/09 11:08:12;;;;;;;3.38;1.52;;;4.10;91.70;;;;;;4863397;29;20098;-78
2021/12/09 11:10:45;;;;;;;4.90;1.60;;;4.10;91.80;;;;;;4866396;29;20381;-80
2021/12/09 11:13:12;;;;;;;3.10;1.70;;;4.10;91.70;;;;;;4861807;29;20041;-80
2021/12/09 11:15:49;;;;;;;3.53;1.52;;;4.20;91.70;;;;;;4880857;29;20125;-81
2021/12/09 11:18:29;;;;;;;4.18;1.65;;;4.20;91.70;;;;;;4863214;29;20097;-84
2021/12/09 11:20:54;;;;;;;3.45;1.75;;;4.20;91.70;;;;;;4865317;29;20143;-79
2021/12/09 11:23:33;;;;;;;5.22;1.83;;;4.20;91.70;;;;;;4860639;29;20273;-79
2021/12/09 11:26:22;;;;;;;3.42;1.60;;;4.20;91.70;;;;;;4856387;29;20365;-79
2021/12/09 11:29:00;;;;;;;3.10;1.55;;;4.30;91.80;;;;;;4895903;29;20028;-78
2021/12/09 11:31:29;;;;;;;3.95;1.73;;;4.30;91.70;;;;;;4864179;29;20044;-78
2021/12/09 11:34:00;;;;;;;3.85;1.88;;;4.30;91.70;;;;;;4865508;29;20040;-79
2021/12/09 11:36:49;;;;;;;3.67;2.10;;;4.30;91.70;;;;;;4865585;29;20047;-79
2021/12/09 11:39:23;;;;;;;3.10;1.77;;;4.30;91.70;;;;;;4895283;29;20037;-79
2021/12/09 11:41:49;;;;;;;5.00;2.30;;;4.40;91.70;;;;;;4879584;29;20135;-79
2021/12/09 11:44:15;;;;;;;3.67;1.85;;;4.40;91.70;;;;;;4880307;29;20063;-79
2021/12/09 11:46:47;;;;;;;4.20;2.33;;;4.50;91.70;;;;;;4880571;29;20108;-79
2021/12/09 11:49:13;;;;;;;3.38;1.98;;;4.50;91.70;;;;;;4879999;29;20033;-79
2021/12/09 11:51:40;;;;;;;3.55;1.85;;;4.50;91.70;;;;;;4864615;29;20113;-79
2021/12/09 11:54:08;;;;;;;4.72;2.22;;;4.50;91.70;;;;;;4864605;29;20115;-79
2021/12/09 11:56:43;;;;;;;4.32;2.10;;;4.60;91.70;;;;;;4880499;29;20044;-79
2021/12/09 12:13:43;;;;;;;4.72;2.13;;;4.90;91.60;;;;;;4863899;29;20115;-79
2021/12/09 12:16:42;;;;;;;3.35;2.00;;;5.00;91.50;;;;;;4845764;29;20041;-82
2021/12/09 12:19:40;;;;;;;3.97;1.92;;;5.00;91.50;;;;;;4861484;29;20069;-84
2021/12/09 12:22:53;;;;;;;3.35;1.95;;;5.10;91.50;;;;;;4823843;29;20058;-81
2021/12/09 12:26:33;;;;;;;3.55;2.05;;;5.10;91.50;;;;;;4810431;29;20160;-79
2021/12/09 12:32:07;;;;;;;3.75;2.38;;;5.10;91.40;;;;;;4798512;29;20450;-82
2021/12/09 12:40:54;;;;;;;2.72;1.73;;;5.00;91.50;;;;;;4773671;29;20526;-81
2021/12/09 12:43:38;;;;;;;3.55;1.90;;;5.00;91.50;;;;;;4779889;29;20046;-82
2021/12/09 12:46:32;;;;;;;2.65;1.70;;;5.00;91.60;;;;;;4808740;29;20153;-81
2021/12/09 12:49:07;;;;;;;2.75;1.80;;;5.00;91.50;;;;;;4784170;29;20066;-79
2021/12/09 12:51:47;;;;;;;2.38;1.50;;;5.00;91.60;;;;;;4807278;29;20051;-80
2021/12/09 12:54:52;;;;;;;2.70;1.50;;;5.00;91.60;;;;;;4828619;29;20045;-79
2021/12/09 12:58:20;;;;;;;2.58;1.90;;;5.00;91.60;;;;;;4739048;30;20135;-78
2021/12/09 13:00:52;;;;;;;4.10;2.10;;;5.00;91.60;;;;;;4750968;30;20500;-79
2021/12/09 13:15:22;;;;;;;3.38;2.00;;;5.00;91.60;;;;;;4646535;30;20051;-79
2021/12/09 13:17:59;;;;;;;4.68;2.15;;;5.00;91.60;;;;;;4664765;30;20050;-80
2021/12/09 13:20:41;;;;;;;3.65;2.08;;;5.00;91.90;;;;;;4664808;30;20159;-81
2021/12/09 13:23:42;;;;;;;3.30;2.03;;;5.00;91.60;;;;;;4713830;30;20056;-81
2021/12/09 13:26:20;;;;;;;3.22;2.10;;;5.00;91.60;;;;;;4714095;30;20045;-79
2021/12/09 13:29:20;;;;;;;3.92;1.90;;;5.00;91.70;;;;;;4705511;30;20037;-82
2021/12/09 13:32:02;;;;;;;3.53;2.13;;;5.00;91.60;;;;;;4712955;30;20045;-82
2021/12/09 13:35:00;;;;;;;2.92;1.83;;;5.00;91.60;;;;;;4727062;30;20049;-82
2021/12/09 13:38:40;;;;;;;3.33;1.90;;;5.00;91.70;;;;;;4715528;30;20451;-82
2021/12/09 13:47:40;;;;;;;2.92;1.80;;;5.00;91.70;;;;;;4703728;30;20068;-78
2021/12/09 13:55:41;;;;;;;3.20;1.70;;;5.00;91.70;;;;;;4709676;30;20576;-78
2021/12/09 13:58:11;;;;;;;3.15;1.88;;;5.00;91.70;;;;;;4714250;30;20095;-77
2021/12/09 14:00:41;;;;;;;4.03;1.58;;;5.00;91.70;;;;;;4701161;30;20088;-77
2021/12/09 14:03:12;;;;;;;3.05;1.77;;;5.10;91.80;;;;;;4702006;30;20048;-78
2021/12/09 14:05:58;;;;;;;2.50;1.50;;;5.00;91.70;;;;;;4700914;30;20146;-79
2021/12/09 14:08:34;;;;;;;4.60;1.85;;;5.00;91.80;;;;;;4734750;30;20077;-78